Terminal Aerodrome Forecast
Issued by NWS

Home | Current Version | Previous Version | Text Only | Print | Product List | Glossary On
Versions: 1 2 3 4 5 6 7 8 9 10 11 12 13 14 15
864
FTUS43 KIND 092134 AAB
TAFLAF
TAF AMD
KLAF 092134Z 0922/1018 29014G20KT 5SM -SHSN SCT015 OVC025
      TEMPO 0922/1002 2SM -SHSN BKN015 OVC025
     FM100200 29012G20KT 6SM -SHSN OVC025
      TEMPO 1002/1005 4SM -SHSN
     FM100700 29012G20KT P6SM -SHSN SCT012 OVC020
     FM101200 30012G20KT P6SM OVC020=

USA.gov is the U.S. government's official web portal to all federal, state and local government web resources and services.